Lake Arthur, New Mexico
Current Conditions -  °F | °C
As of 5:51 PM on Thursday 27 Nov 2014 (Local Time) from KROW Reporting Station
Clear Clear  
Wind Chill: 42°   Ceiling: Unl
Heat Index: 46°   Visibility: 10mi
Dew Point: 29°   Wind: 8mph
Humidity: 51%   Direction: 190°S
Pressure: 30.27"   Gusts: NA
Location:  33°N, 104.37°W
Report Text: KROW 280051Z 19007KT 10SM CLR 08/M02 A3027 RMK AO2 SLP243 T00781017
Loading
Personal Weather Stations






























Interactive Weather Map New forecast layout! Learn more

10-Day Weather Forecast

Advertisements
Track Severe Weather on mobile